Thessaloniki, Griekenland

11:00 PM EET op 19 februari 2017 (GMT +0200)
Makedonia | | Change Station
Actief advies: >

Hoogte 13 ft 40.52 °N, 22.97 °E | Updated 40 minutes ago

Scattered Clouds
Licht bewolkt
45 °F
Voelt als 45 °F
N
2
Wind Variabel Wind van Variabel

Vandaag
Hoog -- | Laag -- °F
--% Kans op neerslag
Gisteren
Hoog -- | Laag -- °F
Precip. -- inches
Druk 30.12 inches
Zicht 3.7 mijlen
Wolken Licht bewolkt 300 ft
Dauwpunt 45 °F
Vochtigheid 100%
Neerslag 0.00 inches
Dikte sneeuw Niet beschikbaar.
7:16 AM 6:08 PM
Laatste kwartier, 40% visible
METAR LGTS 192020Z VRB02KT 6000 SCT003 07/07 Q1020 NOSIG
Druk 30.12 inches
Zicht 3.7 mijlen
Wolken Licht bewolkt 300 ft
Dauwpunt 45 °F
Vochtigheid 100%
Neerslag 0.00 inches
Dikte sneeuw Niet beschikbaar.
7:16 AM 6:08 PM
Laatste kwartier, 40% visible
METAR LGTS 192020Z VRB02KT 6000 SCT003 07/07 Q1020 NOSIG

Get Your Daily Forecast Email!

Thanks for signing up!

Be on the lookout for a verification email in your inbox.

You'll start receiving the daily forecast at 8 AM.

×

10-Day Weather Forecast

×

Almanac

Astronomie

Feb. 19, 2017 Opkomst Ondergang
Werkelijke tijd
Burgerlijke schemering
Nautische schemering
Astronomische schemering
Maan
Golflengte van het zichtbare licht
Daglengte
Tomorrow will be .
, % of the Moon is Illuminated

Extremen vandaag

Country Highs Country Lows

Community

WunderPhotos

Upload Photos

1,962,540 foto’s ge-upload!

WunderBlog® & News

Nearby

Luchtkwaliteit

  Luchtkwaliteit LK-index Verontreinigende stof
Not available.

Dikte sneeuw

Station Depth Geometrische hoogte

Aardbevingen

Stad Distance Mag. Time & Date
Minimum magnitude displayed is 2.5.

Watertemperatuur langs de kust

Plaats Temperatuur

Stations

Nabije weerstations

Locatie station Temp. Gevoelstemperatuur Dauwpunt Vochtigheid Wind Precip. Hoogte Geactualiseerd Type